createdAt,value
2019-05-26T00:00:31.586Z,0.00
2019-05-26T00:01:31.565Z,0.00
2019-05-26T00:02:31.547Z,0.00
2019-05-26T00:03:31.508Z,0.00
2019-05-26T00:04:31.489Z,0.00
2019-05-26T00:05:31.472Z,0.00
2019-05-26T00:06:31.454Z,0.00
2019-05-26T00:07:31.438Z,0.00
2019-05-26T00:08:31.420Z,0.00
2019-05-26T00:09:31.401Z,0.00
2019-05-26T00:10:31.385Z,0.00
2019-05-26T00:11:31.369Z,0.00
2019-05-26T00:12:31.352Z,0.00
2019-05-26T00:13:31.335Z,0.00
2019-05-26T00:14:31.314Z,0.00
2019-05-26T00:15:31.295Z,0.00
2019-05-26T00:16:31.281Z,0.00
2019-05-26T00:17:31.262Z,0.00
2019-05-26T00:18:33.480Z,0.00
2019-05-26T00:19:31.228Z,0.00
2019-05-26T00:20:31.210Z,0.00
2019-05-26T00:21:31.198Z,0.00
2019-05-26T00:22:31.175Z,0.00
2019-05-26T00:23:31.164Z,0.00
2019-05-26T00:24:31.140Z,0.00
2019-05-26T00:25:31.124Z,0.00
2019-05-26T00:26:31.105Z,0.00
2019-05-26T00:27:31.093Z,0.00
2019-05-26T00:28:31.069Z,0.00
2019-05-26T00:29:31.054Z,0.00
2019-05-26T00:30:31.036Z,0.00
2019-05-26T00:31:31.020Z,0.00
2019-05-26T00:32:30.999Z,0.00
2019-05-26T00:33:30.984Z,0.00
2019-05-26T00:34:30.966Z,0.00
2019-05-26T00:35:30.949Z,0.00
2019-05-26T00:36:30.933Z,0.00
2019-05-26T00:37:47.386Z,0.00
2019-05-26T00:38:30.895Z,0.00
2019-05-26T00:39:30.878Z,0.00
2019-05-26T00:40:30.861Z,0.00
2019-05-26T00:41:30.844Z,0.00
2019-05-26T00:42:30.826Z,0.00
2019-05-26T00:43:30.812Z,0.00
2019-05-26T00:44:30.797Z,0.00
2019-05-26T00:45:30.774Z,0.00
2019-05-26T00:46:30.757Z,0.00
2019-05-26T00:47:30.806Z,0.00
2019-05-26T00:48:30.726Z,0.00
2019-05-26T00:49:30.709Z,0.00
2019-05-26T00:50:30.688Z,0.00
2019-05-26T00:51:30.670Z,0.00
2019-05-26T00:52:30.653Z,0.00
2019-05-26T00:53:30.636Z,0.00
2019-05-26T00:54:30.620Z,0.00
2019-05-26T00:55:30.601Z,0.00
2019-05-26T00:56:30.585Z,0.00
2019-05-26T00:57:30.571Z,0.00
2019-05-26T00:58:30.589Z,0.00
2019-05-26T00:59:30.536Z,0.00
2019-05-26T01:00:30.520Z,0.00
2019-05-26T01:01:30.508Z,0.00
2019-05-26T01:02:30.482Z,0.00
2019-05-26T01:03:30.465Z,0.00
2019-05-26T01:04:30.448Z,0.00
2019-05-26T01:05:30.437Z,0.00
2019-05-26T01:06:30.415Z,0.00
2019-05-26T01:07:30.399Z,0.00
2019-05-26T01:08:30.377Z,0.00
2019-05-26T01:09:30.364Z,0.00
2019-05-26T01:10:30.349Z,0.00
2019-05-26T01:11:30.330Z,0.00
2019-05-26T01:12:30.312Z,0.00
2019-05-26T01:13:30.297Z,0.00
2019-05-26T01:14:30.278Z,0.00
2019-05-26T01:15:30.258Z,0.00
2019-05-26T01:16:30.240Z,0.00
2019-05-26T01:17:30.222Z,0.00
2019-05-26T01:19:30.195Z,0.00
2019-05-26T01:20:30.171Z,0.00
2019-05-26T01:21:30.157Z,0.00
2019-05-26T01:22:30.135Z,0.00
2019-05-26T01:23:30.118Z,0.00
2019-05-26T01:24:30.105Z,0.00
2019-05-26T01:25:30.090Z,0.00
2019-05-26T01:26:30.066Z,0.00
2019-05-26T01:27:30.048Z,0.00
2019-05-26T01:28:30.035Z,0.00
2019-05-26T01:29:30.024Z,0.00
2019-05-26T01:30:30.002Z,0.00
2019-05-26T01:31:29.987Z,0.00
2019-05-26T01:32:29.965Z,0.00
2019-05-26T01:33:29.945Z,0.00
2019-05-26T01:34:29.929Z,0.00
2019-05-26T01:35:29.912Z,0.00
2019-05-26T01:36:29.916Z,0.00
2019-05-26T01:37:29.876Z,0.00
2019-05-26T01:38:29.861Z,0.00
2019-05-26T01:39:29.843Z,0.00
2019-05-26T01:40:29.929Z,0.00
2019-05-26T01:41:29.807Z,0.00
2019-05-26T01:42:29.797Z,0.00
2019-05-26T01:43:29.775Z,0.00
2019-05-26T01:44:29.759Z,0.00
2019-05-26T01:45:29.739Z,0.00
2019-05-26T01:46:29.721Z,0.00
2019-05-26T01:47:29.701Z,0.00
2019-05-26T01:48:29.687Z,0.00
2019-05-26T01:49:29.671Z,0.00
2019-05-26T01:50:29.649Z,0.00
2019-05-26T01:51:29.631Z,0.00
2019-05-26T01:52:29.614Z,0.00
2019-05-26T01:53:29.599Z,0.00
2019-05-26T01:54:29.580Z,0.00
2019-05-26T01:55:29.561Z,0.00
2019-05-26T01:56:29.563Z,0.00
2019-05-26T01:57:29.527Z,0.00
2019-05-26T01:58:29.510Z,0.00
2019-05-26T01:59:29.491Z,0.00
2019-05-26T02:00:29.478Z,0.00
2019-05-26T02:01:29.459Z,0.00
2019-05-26T02:02:29.441Z,0.00
2019-05-26T02:03:29.422Z,0.00
2019-05-26T02:04:29.405Z,0.00
2019-05-26T02:05:29.387Z,0.00
2019-05-26T02:06:29.371Z,0.00
2019-05-26T02:07:29.351Z,0.00
2019-05-26T02:08:38.823Z,0.00
2019-05-26T02:09:29.317Z,0.00
2019-05-26T02:10:29.303Z,0.00
2019-05-26T02:11:29.286Z,0.00
2019-05-26T02:12:29.273Z,0.00
2019-05-26T02:13:29.248Z,0.00
2019-05-26T02:14:29.229Z,0.00
2019-05-26T02:15:29.211Z,0.00
2019-05-26T02:16:29.195Z,0.00
2019-05-26T02:17:29.186Z,0.00
2019-05-26T02:18:29.161Z,0.00
2019-05-26T02:19:29.143Z,0.00
2019-05-26T02:20:29.124Z,0.00
2019-05-26T02:21:29.105Z,0.00
2019-05-26T02:22:29.090Z,0.00
2019-05-26T02:23:29.071Z,0.00
2019-05-26T02:24:29.053Z,0.00
2019-05-26T02:25:29.036Z,0.00
2019-05-26T02:26:29.021Z,0.00
2019-05-26T02:27:29.005Z,0.00
2019-05-26T02:28:28.982Z,0.00
2019-05-26T02:29:28.969Z,0.00
2019-05-26T02:30:28.948Z,0.00
2019-05-26T02:31:28.933Z,0.00
2019-05-26T02:32:28.915Z,0.00
2019-05-26T02:33:28.896Z,0.00
2019-05-26T02:34:28.879Z,0.00
2019-05-26T02:35:28.860Z,0.00
2019-05-26T02:36:28.848Z,0.00
2019-05-26T02:37:28.823Z,0.00
2019-05-26T02:38:28.805Z,0.00
2019-05-26T02:39:28.788Z,0.00
2019-05-26T02:40:28.769Z,0.00
2019-05-26T02:41:28.754Z,0.00
2019-05-26T02:42:28.734Z,0.00
2019-05-26T02:43:28.719Z,0.00
2019-05-26T02:44:28.699Z,0.00
2019-05-26T02:45:28.681Z,0.00
2019-05-26T02:46:28.663Z,0.00
2019-05-26T02:47:28.696Z,0.00
2019-05-26T02:48:28.628Z,0.00
2019-05-26T02:49:28.613Z,0.00
2019-05-26T02:50:28.591Z,4.00
2019-05-26T02:51:28.573Z,4.00
2019-05-26T02:52:28.556Z,4.00
2019-05-26T02:53:28.538Z,4.00
2019-05-26T02:54:28.522Z,0.00
2019-05-26T02:55:28.504Z,4.00
2019-05-26T02:56:28.491Z,4.00
2019-05-26T02:57:28.466Z,4.00
2019-05-26T02:58:28.449Z,8.00
2019-05-26T02:59:28.435Z,4.00
2019-05-26T03:00:28.413Z,8.00
2019-05-26T03:01:28.394Z,8.00
2019-05-26T03:02:28.393Z,8.00
2019-05-26T03:03:28.360Z,12.00
2019-05-26T03:04:28.350Z,12.00
2019-05-26T03:05:28.326Z,16.00
2019-05-26T03:06:28.308Z,16.00
2019-05-26T03:07:28.290Z,20.00
2019-05-26T03:08:28.273Z,24.00
2019-05-26T03:09:28.252Z,24.00
2019-05-26T03:10:28.237Z,32.00
2019-05-26T03:11:28.223Z,32.00
2019-05-26T03:12:28.197Z,40.00
2019-05-26T03:13:28.288Z,44.00
2019-05-26T03:14:28.162Z,52.00
2019-05-26T03:15:28.147Z,56.00
2019-05-26T03:16:28.127Z,68.00
2019-05-26T03:17:28.109Z,76.00
2019-05-26T03:18:28.093Z,84.00
2019-05-26T03:19:28.073Z,92.00
2019-05-26T03:20:28.055Z,100.00
2019-05-26T03:21:28.036Z,116.00
2019-05-26T03:22:28.030Z,124.00
2019-05-26T03:23:28.001Z,140.00
2019-05-26T03:24:27.989Z,152.00
2019-05-26T03:25:27.965Z,164.00
2019-05-26T03:26:27.952Z,184.00
2019-05-26T03:27:27.929Z,200.00
2019-05-26T03:28:27.913Z,216.00
2019-05-26T03:29:27.899Z,232.00
2019-05-26T03:30:27.883Z,252.00
2019-05-26T03:31:27.865Z,276.00
2019-05-26T03:32:27.898Z,300.00
2019-05-26T03:33:27.831Z,324.00
2019-05-26T03:34:27.813Z,356.00
2019-05-26T03:35:27.788Z,384.00
2019-05-26T03:36:27.769Z,416.00
2019-05-26T03:37:27.749Z,444.00
2019-05-26T03:38:27.732Z,480.00
2019-05-26T03:39:43.797Z,512.00
2019-05-26T03:40:27.698Z,548.00
2019-05-26T03:41:27.695Z,584.00
2019-05-26T03:42:27.663Z,628.00
2019-05-26T03:43:27.643Z,672.00
2019-05-26T03:44:27.627Z,724.00
2019-05-26T03:45:27.649Z,776.00
2019-05-26T03:46:27.592Z,828.00
2019-05-26T03:47:27.573Z,892.00
2019-05-26T03:48:27.552Z,956.00
2019-05-26T03:49:27.538Z,1020.00
2019-05-26T03:50:27.518Z,1088.00
2019-05-26T03:51:27.516Z,1156.00
2019-05-26T03:52:27.481Z,1232.00
2019-05-26T03:53:27.464Z,1304.00
2019-05-26T03:54:27.445Z,1380.00
2019-05-26T03:55:27.432Z,1456.00
2019-05-26T03:56:27.409Z,1532.00
2019-05-26T03:57:27.394Z,1604.00
2019-05-26T03:58:27.384Z,1688.00
2019-05-26T03:59:27.355Z,1772.00
2019-05-26T04:00:27.340Z,1868.00
2019-05-26T04:01:27.322Z,1952.00
2019-05-26T04:02:27.305Z,2016.00
2019-05-26T04:03:27.283Z,2088.00
2019-05-26T04:04:27.270Z,2168.00
2019-05-26T04:05:27.253Z,2268.00
2019-05-26T04:06:27.238Z,2376.00
2019-05-26T04:07:27.216Z,2496.00
2019-05-26T04:08:27.201Z,2636.00
2019-05-26T04:09:27.179Z,2804.00
2019-05-26T04:10:27.162Z,3008.00
2019-05-26T04:11:27.147Z,3216.00
2019-05-26T04:12:27.134Z,3384.00
2019-05-26T04:13:27.108Z,3472.00
2019-05-26T04:14:27.094Z,3496.00
2019-05-26T04:15:27.074Z,3504.00
2019-05-26T04:16:27.054Z,3520.00
2019-05-26T04:17:27.039Z,3556.00
2019-05-26T04:18:27.029Z,3628.00
2019-05-26T04:19:27.008Z,3716.00
2019-05-26T04:20:26.989Z,3832.00
2019-05-26T04:21:26.977Z,3976.00
2019-05-26T04:22:26.955Z,4108.00
2019-05-26T04:23:26.938Z,4252.00
2019-05-26T04:24:26.921Z,4368.00
2019-05-26T04:25:26.899Z,4448.00
2019-05-26T04:26:26.884Z,4552.00
2019-05-26T04:27:26.865Z,4684.00
2019-05-26T04:28:26.847Z,4804.00
2019-05-26T04:29:26.829Z,4816.00
2019-05-26T04:30:26.815Z,4852.00
2019-05-26T04:31:26.794Z,5004.00
2019-05-26T04:32:26.782Z,5140.00
2019-05-26T04:33:26.761Z,5340.00
2019-05-26T04:34:26.746Z,5436.00
2019-05-26T04:35:26.726Z,5400.00
2019-05-26T04:36:26.709Z,5316.00
2019-05-26T04:37:26.700Z,5268.00
2019-05-26T04:38:26.677Z,5228.00
2019-05-26T04:39:26.658Z,5236.00
2019-05-26T04:40:27.964Z,5288.00
2019-05-26T04:41:26.629Z,5288.00
2019-05-26T04:42:26.619Z,5320.00
2019-05-26T04:43:26.592Z,5420.00
2019-05-26T04:44:26.578Z,5488.00
2019-05-26T04:45:26.559Z,5404.00
2019-05-26T04:46:26.547Z,5380.00
2019-05-26T04:47:26.529Z,5460.00
2019-05-26T04:48:26.518Z,5556.00
2019-05-26T04:49:26.494Z,5608.00
2019-05-26T04:50:26.478Z,5628.00
2019-05-26T04:51:26.460Z,5660.00
2019-05-26T04:52:26.455Z,5740.00
2019-05-26T04:53:26.427Z,5852.00
2019-05-26T04:54:26.410Z,6048.00
2019-05-26T04:55:26.401Z,6124.00
2019-05-26T04:56:26.378Z,6260.00
2019-05-26T04:57:26.361Z,6648.00
2019-05-26T04:58:26.347Z,7200.00
2019-05-26T04:59:26.330Z,7848.00
2019-05-26T05:00:26.312Z,8204.00
2019-05-26T05:01:26.296Z,8276.00
2019-05-26T05:02:26.281Z,8300.00
2019-05-26T05:03:26.268Z,8296.00
2019-05-26T05:04:26.250Z,8832.00
2019-05-26T05:05:26.237Z,8492.00
2019-05-26T05:06:26.221Z,8892.00
2019-05-26T05:07:28.521Z,9156.00
2019-05-26T05:08:26.189Z,9012.00
2019-05-26T05:09:26.198Z,8484.00
2019-05-26T05:10:41.288Z,8564.00
2019-05-26T05:11:26.141Z,8904.00
2019-05-26T05:12:26.129Z,9740.00
2019-05-26T05:13:26.115Z,9896.00
2019-05-26T05:14:26.104Z,10432.00
2019-05-26T05:15:26.086Z,10688.00
2019-05-26T05:16:26.068Z,10268.00
2019-05-26T05:17:26.054Z,10356.00
2019-05-26T05:18:26.047Z,11516.00
2019-05-26T05:19:26.029Z,12408.00
2019-05-26T05:20:26.012Z,13252.00
2019-05-26T05:21:26.005Z,12896.00
2019-05-26T05:22:25.984Z,11676.00
2019-05-26T05:23:25.971Z,11216.00
2019-05-26T05:24:25.958Z,12624.00
2019-05-26T05:25:25.944Z,13924.00
2019-05-26T05:26:25.940Z,14204.00
2019-05-26T05:27:25.920Z,15356.00
2019-05-26T05:28:25.906Z,17472.00
2019-05-26T05:29:25.900Z,15736.00
2019-05-26T05:30:25.882Z,16400.00
2019-05-26T05:31:25.868Z,16084.00
2019-05-26T05:32:25.857Z,15784.00
2019-05-26T05:33:25.853Z,14868.00
2019-05-26T05:34:25.838Z,14256.00
2019-05-26T05:35:25.830Z,12960.00
2019-05-26T05:36:25.812Z,12308.00
2019-05-26T05:37:25.802Z,12480.00
2019-05-26T05:38:25.858Z,12584.00
2019-05-26T05:39:25.776Z,12956.00
2019-05-26T05:40:25.769Z,14320.00
2019-05-26T05:41:25.758Z,14820.00
2019-05-26T05:42:25.742Z,15052.00
2019-05-26T05:43:25.732Z,15572.00
2019-05-26T05:44:25.720Z,15800.00
2019-05-26T05:45:25.707Z,15620.00
2019-05-26T05:46:25.694Z,15264.00
2019-05-26T05:47:25.682Z,15828.00
2019-05-26T05:48:25.673Z,16556.00
2019-05-26T05:49:25.694Z,16964.00
2019-05-26T05:50:25.647Z,17600.00
2019-05-26T05:51:25.633Z,18144.00
2019-05-26T05:52:25.623Z,18016.00
2019-05-26T05:53:25.611Z,17768.00
2019-05-26T05:54:25.604Z,18208.00
2019-05-26T05:55:25.591Z,18688.00
2019-05-26T05:56:25.578Z,19168.00
2019-05-26T05:57:25.568Z,18976.00
2019-05-26T05:58:25.560Z,19232.00
2019-05-26T05:59:25.546Z,18752.00
2019-05-26T06:00:25.543Z,17456.00
2019-05-26T06:01:25.529Z,16804.00
2019-05-26T06:02:25.515Z,16028.00
2019-05-26T06:03:25.504Z,16464.00
2019-05-26T06:04:25.495Z,17060.00
2019-05-26T06:05:25.488Z,16356.00
2019-05-26T06:06:25.477Z,15792.00
2019-05-26T06:07:25.472Z,15096.00
2019-05-26T06:08:25.453Z,14916.00
2019-05-26T06:09:25.446Z,14960.00
2019-05-26T06:10:25.435Z,14652.00
2019-05-26T06:11:25.420Z,14160.00
2019-05-26T06:12:25.417Z,13576.00
2019-05-26T06:13:25.404Z,12900.00
2019-05-26T06:14:25.391Z,12464.00
2019-05-26T06:15:25.375Z,12656.00
2019-05-26T06:16:25.368Z,12692.00
2019-05-26T06:17:25.355Z,12880.00
2019-05-26T06:18:25.341Z,13712.00
2019-05-26T06:19:25.334Z,14352.00
2019-05-26T06:20:25.319Z,14804.00
2019-05-26T06:21:25.304Z,15172.00
2019-05-26T06:22:25.293Z,15668.00
2019-05-26T06:23:25.286Z,15872.00
2019-05-26T06:24:25.268Z,16760.00
2019-05-26T06:25:25.407Z,17332.00
2019-05-26T06:26:25.254Z,18156.00
2019-05-26T06:27:25.234Z,19264.00
2019-05-26T06:28:25.226Z,19328.00
2019-05-26T06:29:25.210Z,21760.00
2019-05-26T06:30:25.202Z,23424.00
2019-05-26T06:31:25.185Z,25600.00
2019-05-26T06:32:25.177Z,26016.00
2019-05-26T06:33:25.168Z,25984.00
2019-05-26T06:34:25.155Z,25856.00
2019-05-26T06:35:25.144Z,24960.00
2019-05-26T06:36:25.141Z,27136.00
2019-05-26T06:37:25.122Z,26688.00
2019-05-26T06:38:25.116Z,28704.00
2019-05-26T06:39:25.105Z,26144.00
2019-05-26T06:40:25.094Z,30688.00
2019-05-26T06:41:33.538Z,31680.00
2019-05-26T06:42:25.077Z,34560.00
2019-05-26T06:43:25.070Z,36544.00
2019-05-26T06:44:25.061Z,37792.00
2019-05-26T06:45:25.055Z,36064.00
2019-05-26T06:46:25.045Z,33536.00
2019-05-26T06:47:25.037Z,33536.00
2019-05-26T06:48:26.956Z,35296.00
2019-05-26T06:49:25.023Z,33216.00
2019-05-26T06:50:25.016Z,28160.00
2019-05-26T06:51:25.009Z,29792.00
2019-05-26T06:52:25.002Z,31072.00
2019-05-26T06:53:24.995Z,28832.00
2019-05-26T06:54:24.989Z,27552.00
2019-05-26T06:55:24.981Z,30240.00
2019-05-26T06:56:24.976Z,33728.00
2019-05-26T06:57:24.969Z,28256.00
2019-05-26T06:58:24.958Z,25472.00
2019-05-26T06:59:24.952Z,27360.00
2019-05-26T07:00:24.943Z,29024.00
2019-05-26T07:01:24.937Z,31072.00
2019-05-26T07:02:24.929Z,27808.00
2019-05-26T07:03:24.965Z,25696.00
2019-05-26T07:04:24.914Z,27136.00
2019-05-26T07:05:24.907Z,38496.00
2019-05-26T07:06:24.897Z,44128.00
2019-05-26T07:07:24.891Z,44832.00
2019-05-26T07:08:24.881Z,46816.00
2019-05-26T07:09:24.875Z,51072.00
2019-05-26T07:10:24.874Z,53568.00
2019-05-26T07:11:24.863Z,51136.00
2019-05-26T07:12:24.864Z,46016.00
2019-05-26T07:13:24.857Z,45760.00
2019-05-26T07:14:24.854Z,42912.00
2019-05-26T07:15:24.845Z,52256.00
2019-05-26T07:16:37.470Z,47520.00
2019-05-26T07:17:24.837Z,41184.00
2019-05-26T07:18:24.834Z,42784.00
2019-05-26T07:19:24.842Z,39648.00
2019-05-26T07:20:24.828Z,40448.00
2019-05-26T07:21:24.822Z,43776.00
2019-05-26T07:22:24.824Z,48224.00
2019-05-26T07:23:24.818Z,50752.00
2019-05-26T07:24:29.010Z,49312.00
2019-05-26T07:25:24.808Z,51072.00
2019-05-26T07:26:24.817Z,50976.00
2019-05-26T07:27:24.807Z,55072.00
2019-05-26T07:28:24.799Z,55744.00
2019-05-26T07:29:24.798Z,56640.00
2019-05-26T07:30:24.792Z,58336.00
2019-05-26T07:31:24.789Z,60288.00
2019-05-26T07:32:24.792Z,61760.00
2019-05-26T07:33:24.786Z,62336.00
2019-05-26T07:34:24.843Z,62144.00
2019-05-26T07:35:24.780Z,61088.00
2019-05-26T07:36:24.778Z,60320.00
2019-05-26T07:37:24.777Z,60032.00
2019-05-26T07:38:24.777Z,59200.00
2019-05-26T07:39:24.779Z,61472.00
2019-05-26T07:40:24.783Z,62144.00
2019-05-26T07:41:24.776Z,63264.00
2019-05-26T07:42:24.766Z,63840.00
2019-05-26T07:43:27.937Z,63136.00
2019-05-26T07:44:24.769Z,60672.00
2019-05-26T07:45:24.784Z,60320.00
2019-05-26T07:46:24.763Z,64128.00
2019-05-26T07:47:24.762Z,64704.00
2019-05-26T07:48:24.768Z,64992.00
2019-05-26T07:49:24.795Z,65728.00
2019-05-26T07:50:24.805Z,65600.00
2019-05-26T07:51:24.767Z,66048.00
2019-05-26T07:52:24.752Z,65920.00
2019-05-26T07:53:24.767Z,65888.00
2019-05-26T07:54:26.066Z,65056.00
2019-05-26T07:55:24.748Z,64992.00
2019-05-26T07:56:24.748Z,65760.00
2019-05-26T07:57:24.742Z,62592.00
2019-05-26T07:58:24.738Z,68320.00
2019-05-26T07:59:24.736Z,68320.00
2019-05-26T08:00:24.732Z,67456.00
2019-05-26T08:01:24.747Z,65888.00
2019-05-26T08:02:24.728Z,65984.00
2019-05-26T08:03:24.725Z,64800.00
2019-05-26T08:04:24.724Z,66752.00
2019-05-26T08:05:24.724Z,65888.00
2019-05-26T08:06:24.721Z,61376.00
2019-05-26T08:07:24.720Z,73760.00
2019-05-26T08:08:24.725Z,76608.00
2019-05-26T08:09:24.716Z,66336.00
2019-05-26T08:10:24.711Z,76832.00
2019-05-26T08:11:24.709Z,69952.00
2019-05-26T08:12:28.246Z,62432.00
2019-05-26T08:13:24.706Z,62912.00
2019-05-26T08:14:24.702Z,66304.00
2019-05-26T08:15:24.699Z,63872.00
2019-05-26T08:16:24.697Z,67488.00
2019-05-26T08:17:24.696Z,64224.00
2019-05-26T08:18:24.696Z,65344.00
2019-05-26T08:19:24.692Z,58880.00
2019-05-26T08:20:24.688Z,52320.00
2019-05-26T08:21:24.686Z,58464.00
2019-05-26T08:22:24.681Z,67584.00
2019-05-26T08:23:24.679Z,64384.00
2019-05-26T08:24:24.680Z,96832.00
2019-05-26T08:25:24.675Z,78304.00
2019-05-26T08:26:24.671Z,78496.00
2019-05-26T08:27:24.669Z,65792.00
2019-05-26T08:28:24.668Z,52352.00
2019-05-26T08:29:24.662Z,75872.00
2019-05-26T08:30:24.716Z,57280.00
2019-05-26T08:31:24.666Z,56640.00
2019-05-26T08:32:24.656Z,61952.00
2019-05-26T08:33:24.653Z,56000.00
2019-05-26T08:34:24.649Z,59392.00
2019-05-26T08:35:24.729Z,57504.00
2019-05-26T08:36:24.642Z,51712.00
2019-05-26T08:37:24.678Z,48896.00
2019-05-26T08:38:24.638Z,48448.00
2019-05-26T08:39:24.631Z,56928.00
2019-05-26T08:40:24.632Z,79808.00
2019-05-26T08:41:24.626Z,56448.00
2019-05-26T08:42:27.193Z,60288.00
2019-05-26T08:43:24.622Z,55968.00
2019-05-26T08:44:24.614Z,66144.00
2019-05-26T08:45:24.634Z,58720.00
2019-05-26T08:46:24.608Z,54976.00
2019-05-26T08:47:24.602Z,51584.00
2019-05-26T08:48:24.600Z,49280.00
2019-05-26T08:49:24.597Z,48384.00
2019-05-26T08:50:24.602Z,44832.00
2019-05-26T08:51:24.595Z,42592.00
2019-05-26T08:52:24.586Z,41120.00
2019-05-26T08:53:24.581Z,39136.00
2019-05-26T08:54:24.577Z,37088.00
2019-05-26T08:55:24.570Z,35744.00
2019-05-26T08:56:24.565Z,34880.00
2019-05-26T08:57:24.560Z,34432.00
2019-05-26T08:58:24.554Z,34240.00
2019-05-26T08:59:24.550Z,34016.00
2019-05-26T09:00:24.544Z,33568.00
2019-05-26T09:01:24.537Z,33088.00
2019-05-26T09:02:24.536Z,32864.00
2019-05-26T09:03:24.529Z,32640.00
2019-05-26T09:04:24.517Z,32224.00
2019-05-26T09:05:24.512Z,31552.00
2019-05-26T09:06:24.506Z,30976.00
2019-05-26T09:07:24.496Z,30816.00
2019-05-26T09:08:24.490Z,30656.00
2019-05-26T09:09:24.491Z,30240.00
2019-05-26T09:10:24.475Z,29632.00
2019-05-26T09:11:24.467Z,29216.00
2019-05-26T09:12:24.459Z,29120.00
2019-05-26T09:13:24.457Z,29120.00
2019-05-26T09:14:25.551Z,29632.00
2019-05-26T09:15:24.449Z,30272.00
2019-05-26T09:16:24.428Z,30880.00
2019-05-26T09:17:24.425Z,31520.00
2019-05-26T09:18:24.432Z,32192.00
2019-05-26T09:19:24.404Z,33152.00
2019-05-26T09:20:24.397Z,34272.00
2019-05-26T09:21:24.388Z,35456.00
2019-05-26T09:22:24.378Z,36608.00
2019-05-26T09:23:24.371Z,37632.00
2019-05-26T09:24:24.363Z,38496.00
2019-05-26T09:25:24.354Z,39264.00
2019-05-26T09:26:24.346Z,40160.00
2019-05-26T09:27:24.339Z,41440.00
2019-05-26T09:28:24.330Z,42720.00
2019-05-26T09:29:24.322Z,43360.00
2019-05-26T09:30:24.314Z,42848.00
2019-05-26T09:31:24.315Z,41664.00
2019-05-26T09:32:24.296Z,40640.00
2019-05-26T09:33:24.291Z,40224.00
2019-05-26T09:34:24.284Z,40160.00
2019-05-26T09:35:24.271Z,40064.00
2019-05-26T09:36:24.268Z,39968.00
2019-05-26T09:37:24.256Z,39904.00
2019-05-26T09:38:24.251Z,39968.00
2019-05-26T09:39:24.240Z,39744.00
2019-05-26T09:40:24.236Z,38848.00
2019-05-26T09:41:24.228Z,38240.00
2019-05-26T09:42:24.218Z,38048.00
2019-05-26T09:43:24.209Z,37984.00
2019-05-26T09:44:24.201Z,37856.00
2019-05-26T09:45:24.194Z,38144.00
2019-05-26T09:46:24.192Z,38784.00
2019-05-26T09:47:24.180Z,39392.00
2019-05-26T09:48:24.179Z,39552.00
2019-05-26T09:49:24.194Z,39040.00
2019-05-26T09:50:24.195Z,38048.00
2019-05-26T09:51:24.176Z,37056.00
2019-05-26T09:52:24.141Z,36704.00
2019-05-26T09:53:24.132Z,36704.00
2019-05-26T09:54:24.128Z,36768.00
2019-05-26T09:55:24.119Z,36864.00
2019-05-26T09:56:24.107Z,37088.00
2019-05-26T09:57:24.099Z,37248.00
2019-05-26T09:58:24.093Z,37408.00
2019-05-26T09:59:24.085Z,37664.00
2019-05-26T10:00:24.075Z,37856.00
2019-05-26T10:01:24.076Z,38080.00
2019-05-26T10:02:24.060Z,38240.00
2019-05-26T10:03:24.052Z,38400.00
2019-05-26T10:04:24.042Z,38560.00
2019-05-26T10:05:24.034Z,38464.00
2019-05-26T10:06:24.029Z,38112.00
2019-05-26T10:07:24.022Z,37472.00
2019-05-26T10:08:24.011Z,36800.00
2019-05-26T10:09:24.006Z,36384.00
2019-05-26T10:10:23.997Z,35968.00
2019-05-26T10:11:23.986Z,35520.00
2019-05-26T10:12:23.978Z,35168.00
2019-05-26T10:13:31.608Z,35008.00
2019-05-26T10:14:23.962Z,35168.00
2019-05-26T10:15:23.953Z,35424.00
2019-05-26T10:16:23.953Z,35744.00
2019-05-26T10:17:23.938Z,36224.00
2019-05-26T10:18:23.932Z,36768.00
2019-05-26T10:19:23.922Z,37568.00
2019-05-26T10:20:23.913Z,38720.00
2019-05-26T10:21:23.903Z,40064.00
2019-05-26T10:22:23.894Z,41216.00
2019-05-26T10:23:23.888Z,42112.00
2019-05-26T10:24:23.877Z,42720.00
2019-05-26T10:25:23.870Z,43168.00
2019-05-26T10:26:23.861Z,43552.00
2019-05-26T10:27:23.854Z,44384.00
2019-05-26T10:28:23.845Z,45280.00
2019-05-26T10:29:23.882Z,46272.00
2019-05-26T10:30:23.830Z,47424.00
2019-05-26T10:31:23.821Z,48608.00
2019-05-26T10:32:23.833Z,50208.00
2019-05-26T10:33:23.807Z,51072.00
2019-05-26T10:34:23.800Z,51552.00
2019-05-26T10:35:23.793Z,51296.00
2019-05-26T10:36:23.819Z,50080.00
2019-05-26T10:37:23.779Z,50048.00
2019-05-26T10:38:23.772Z,48160.00
2019-05-26T10:39:23.765Z,47712.00
2019-05-26T10:40:23.758Z,47968.00
2019-05-26T10:41:23.748Z,48640.00
2019-05-26T10:42:23.742Z,49024.00
2019-05-26T10:43:23.742Z,49472.00
2019-05-26T10:44:23.728Z,49760.00
2019-05-26T10:45:23.722Z,50464.00
2019-05-26T10:46:23.715Z,49472.00
2019-05-26T10:47:23.709Z,48160.00
2019-05-26T10:48:23.703Z,46496.00
2019-05-26T10:49:23.695Z,44672.00
2019-05-26T10:50:23.689Z,42816.00
2019-05-26T10:51:23.681Z,40832.00
2019-05-26T10:52:23.676Z,38784.00
2019-05-26T10:53:23.669Z,37184.00
2019-05-26T10:54:23.666Z,36320.00
2019-05-26T10:55:23.654Z,36192.00
2019-05-26T10:56:23.662Z,36480.00
2019-05-26T10:57:23.661Z,36864.00
2019-05-26T10:58:23.676Z,37312.00
2019-05-26T10:59:23.639Z,37696.00
2019-05-26T11:00:23.625Z,38176.00
2019-05-26T11:01:23.634Z,38784.00
2019-05-26T11:02:23.609Z,39680.00
2019-05-26T11:03:23.603Z,40864.00
2019-05-26T11:04:23.593Z,41824.00
2019-05-26T11:05:23.589Z,42560.00
2019-05-26T11:06:23.621Z,42880.00
2019-05-26T11:07:26.798Z,42848.00
2019-05-26T11:08:23.567Z,42688.00
2019-05-26T11:09:23.560Z,42944.00
2019-05-26T11:10:23.554Z,43840.00
2019-05-26T11:11:23.545Z,45088.00
2019-05-26T11:12:23.539Z,46496.00
2019-05-26T11:13:23.532Z,47200.00
2019-05-26T11:14:23.524Z,47360.00
2019-05-26T11:15:23.524Z,46464.00
2019-05-26T11:16:23.510Z,46592.00
2019-05-26T11:17:23.506Z,46624.00
2019-05-26T11:18:23.498Z,46368.00
2019-05-26T11:19:23.489Z,45920.00
2019-05-26T11:20:23.483Z,45344.00
2019-05-26T11:21:23.481Z,44640.00
2019-05-26T11:22:23.472Z,43808.00
2019-05-26T11:23:23.464Z,43104.00
2019-05-26T11:24:23.456Z,42656.00
2019-05-26T11:25:23.451Z,42112.00
2019-05-26T11:26:23.450Z,41440.00
2019-05-26T11:27:23.438Z,40864.00
2019-05-26T11:28:23.435Z,41120.00
2019-05-26T11:29:23.425Z,42080.00
2019-05-26T11:30:23.419Z,43552.00
2019-05-26T11:31:23.410Z,45024.00
2019-05-26T11:32:23.440Z,46016.00
2019-05-26T11:33:23.436Z,46784.00
2019-05-26T11:34:23.393Z,47360.00
2019-05-26T11:35:23.384Z,47264.00
2019-05-26T11:36:23.382Z,46528.00
2019-05-26T11:37:23.379Z,46080.00
2019-05-26T11:38:23.370Z,46336.00
2019-05-26T11:39:23.385Z,46176.00
2019-05-26T11:40:23.378Z,46240.00
2019-05-26T11:41:23.344Z,47232.00
2019-05-26T11:42:23.358Z,48288.00
2019-05-26T11:43:23.350Z,48800.00
2019-05-26T11:44:23.323Z,47328.00
2019-05-26T11:45:23.325Z,45024.00
2019-05-26T11:46:23.316Z,43584.00
2019-05-26T11:47:23.304Z,43456.00
2019-05-26T11:48:23.299Z,44608.00
2019-05-26T11:49:23.294Z,45984.00
2019-05-26T11:50:23.286Z,47040.00
2019-05-26T11:51:23.284Z,46016.00
2019-05-26T11:52:23.277Z,44992.00
2019-05-26T11:53:23.264Z,43456.00
2019-05-26T11:54:23.259Z,41984.00
2019-05-26T11:55:23.252Z,39616.00
2019-05-26T11:56:23.247Z,37472.00
2019-05-26T11:57:23.236Z,35808.00
2019-05-26T11:58:23.230Z,34112.00
2019-05-26T11:59:23.223Z,33568.00
2019-05-26T12:00:23.218Z,35072.00
2019-05-26T12:01:23.361Z,37888.00
2019-05-26T12:02:23.203Z,39744.00
2019-05-26T12:03:23.205Z,40480.00
2019-05-26T12:04:23.189Z,40992.00
2019-05-26T12:05:23.189Z,41472.00
2019-05-26T12:06:23.183Z,41888.00
2019-05-26T12:07:23.169Z,42848.00
2019-05-26T12:08:23.163Z,44128.00
2019-05-26T12:09:23.210Z,45216.00
2019-05-26T12:10:23.149Z,45888.00
2019-05-26T12:11:23.142Z,46368.00
2019-05-26T12:12:23.133Z,46592.00